Ehrenberg, Arizona
Current Conditions -  °F | °C
As of 6:52 AM on Thursday 30 Oct 2014 (Local Time) from KBLH Reporting Station
Clear Clear  
Wind Chill: 62°   Ceiling: Unl
Heat Index: 62°   Visibility: 10mi
Dew Point: 27°   Wind: 9mph
Humidity: 26%   Direction: 240°WSW
Pressure: 29.98"   Gusts: NA
Location:  33.6°N, 114.52°W
Report Text: KBLH 301352Z AUTO 24008KT 10SM CLR 17/M03 A2998 RMK AO2 SLP146 T01671028
Loading
Personal Weather Stations






























Interactive Weather Map
Tropical Storm Tracking
New forecast layout! Learn more

10-Day Weather Forecast

Advertisements
Track Severe Weather on mobile